Flight Track Log - Related Links

Times and Time Zones

All times are in EST time to prevent confusion due to time zone crossing. See the FSR411 flight status page for this flight to view local times or setup timezone preferences in your user account.

Time Position Orientation Groundspeed Altitude Reporting Facility
EST Latitude Longitude Course Direction KTS MPH feet Rate Location/Type
Thu 06:08:15 PM 40.0758 -83.0831 269° West 156 180 1,100  Level Indianapolis Center
Thu 06:08:39 PM 40.0756 -83.1103 269° West 167 192 2,400 1,759 Climbing Indianapolis Center
Thu 06:09:13 PM 40.0731 -83.1456 265° West 184 212 2,800 2,688 Climbing Indianapolis Center
Thu 06:10:15 PM 40.0703 -83.2231 267° West 219 252 6,700 4,113 Climbing Indianapolis Center
Thu 06:11:17 PM 40.0731 -83.3389 272° West 262 302 11,300 3,629 Climbing Indianapolis Center
Thu 06:12:19 PM 40.0733 -83.4572 270° West 326 375 14,200 3,463 Climbing Indianapolis Center
Thu 06:13:20 PM 40.0750 -83.5869 271° West 356 410 18,400 3,854 Climbing Indianapolis Center
Thu 06:14:22 PM 40.0758 -83.7189 271° West 366 421 22,100 2,516 Climbing Indianapolis Center
Thu 06:15:24 PM 40.0783 -83.8617 271° West 386 444 23,600 919 Climbing Indianapolis Center
Thu 06:16:26 PM 40.0792 -84.0031 270° West 394 453 24,000 195 Climbing Indianapolis Center
Thu 06:17:27 PM 40.0808 -84.1761 271° West 398 458 24,000 -49 Level Indianapolis Center
Thu 06:18:29 PM 40.0828 -84.3217 271° West 403 464 23,900  Descending Indianapolis Center
Thu 06:19:31 PM 40.0828 -84.4658 270° West 399 459 24,000 49 Climbing Indianapolis Center
Thu 06:20:32 PM 40.0836 -84.6083 270° West 395 455 24,000  Level Indianapolis Center
Thu 06:21:34 PM 40.0831 -84.7508 270° West 395 455 24,000  Level Indianapolis Center
Thu 06:22:35 PM 40.0828 -84.9069 270° West 387 445 24,000  Level Indianapolis Center
Thu 06:23:37 PM 40.0842 -85.0475 271° West 389 448 24,000  Level Indianapolis Center
Thu 06:24:39 PM 40.0839 -85.1847 270° West 384 442 24,000  Level Indianapolis Center
Thu 06:25:40 PM 40.0831 -85.3225 270° West 382 440 24,000  Level Indianapolis Center
Thu 06:26:42 PM 40.0833 -85.4617 270° West 384 442 24,000  Level Indianapolis Center
Thu 06:27:44 PM 40.0831 -85.6253 270° West 381 438 24,000  Level Indianapolis Center
Thu 06:28:45 PM 40.0825 -85.7608 270° West 378 435 24,000  Level Indianapolis Center
Thu 06:29:47 PM 40.0814 -85.8967 269° West 378 435 24,000  Level Indianapolis Center
Thu 06:30:48 PM 40.0794 -86.0311 269° West 376 433 24,000  Level Indianapolis Center
Thu 06:31:50 PM 40.0778 -86.1656 269° West 376 433 24,000  Level Indianapolis Center
Thu 06:32:52 PM 40.0769 -86.2994 270° West 375 432 24,000  Level Indianapolis Center
Thu 06:33:53 PM 40.0750 -86.4600 269° West 374 430 24,000  Level Indianapolis Center
Thu 06:34:55 PM 40.0733 -86.5953 269° West 376 433 24,000 -244 Level Indianapolis Center
Thu 06:35:56 PM 40.0714 -86.7300 269° West 376 433 23,500 -1,220 Descending Indianapolis Center
Thu 06:36:58 PM 40.0694 -86.8675 269° West 380 437 21,500 -1,854 Descending Indianapolis Center
Thu 06:37:59 PM 40.0669 -87.0017 269° West 376 433 19,700 -1,854 Descending Indianapolis Center
Thu 06:39:01 PM 40.0653 -87.1333 269° West 370 426 17,700 -1,951 Descending Indianapolis Center
Thu 06:40:02 PM 40.0614 -87.2875 268° West 360 414 15,700 -1,707 Descending Indianapolis Center
Thu 06:41:04 PM 40.0603 -87.4133 269° West 353 406 14,200 -1,452 Descending Indianapolis Center
Thu 06:42:06 PM 40.0617 -87.5342 271° West 342 394 12,700 -1,463 Descending Indianapolis Center
Thu 06:43:07 PM 40.0714 -87.6514 276° West 331 381 11,200 -829 Descending Indianapolis Center
Thu 06:44:09 PM 40.0786 -87.7639 275° West 320 368 11,000 -976 Descending Indianapolis Center
Thu 06:45:10 PM 40.0844 -87.8503 275° West 255 293 9,200 -1,854 Descending Indianapolis Center
Thu 06:46:12 PM 40.0900 -87.9300 275° West 231 266 7,200 -1,971 Descending Indianapolis Center
Thu 06:47:30 PM 40.0886 -88.0453 269° West 232 267 4,600 -1,286 Descending Chicago Center
Thu 06:48:32 PM 40.0842 -88.1278 266° West 232 267 4,200 -387 Descending Chicago Center

Login

Don't have an account? Register now (free) for customized features, flight alerts, and more!